sensor_id;sensor_type;location;lat;lon;timestamp;pressure;altitude;pressure_sealevel;temperature;humidity
39739;BME280;25422;48.286;8.484;2024-01-06T00:01:25;92854.97;;;1.85;100.00
39739;BME280;25422;48.286;8.484;2024-01-06T00:03:50;92851.91;;;1.82;100.00
39739;BME280;25422;48.286;8.484;2024-01-06T00:06:16;92845.13;;;1.81;100.00
39739;BME280;25422;48.286;8.484;2024-01-06T00:08:41;92847.53;;;1.82;100.00
39739;BME280;25422;48.286;8.484;2024-01-06T00:11:07;92848.50;;;1.81;100.00
39739;BME280;25422;48.286;8.484;2024-01-06T00:13:32;92850.28;;;1.81;100.00
39739;BME280;25422;48.286;8.484;2024-01-06T00:15:57;92856.91;;;1.83;100.00
39739;BME280;25422;48.286;8.484;2024-01-06T00:18:24;92855.44;;;1.81;100.00
39739;BME280;25422;48.286;8.484;2024-01-06T00:20:49;92854.47;;;1.82;100.00
39739;BME280;25422;48.286;8.484;2024-01-06T00:23:14;92861.22;;;1.83;100.00
39739;BME280;25422;48.286;8.484;2024-01-06T00:25:40;92867.06;;;1.85;100.00
39739;BME280;25422;48.286;8.484;2024-01-06T00:28:05;92873.97;;;1.84;100.00
39739;BME280;25422;48.286;8.484;2024-01-06T00:30:30;92882.38;;;1.87;100.00
39739;BME280;25422;48.286;8.484;2024-01-06T00:32:56;92874.97;;;1.83;100.00
39739;BME280;25422;48.286;8.484;2024-01-06T00:35:21;92884.44;;;1.83;100.00
39739;BME280;25422;48.286;8.484;2024-01-06T00:37:47;92876.84;;;1.81;100.00
39739;BME280;25422;48.286;8.484;2024-01-06T00:40:12;92876.72;;;1.83;100.00
39739;BME280;25422;48.286;8.484;2024-01-06T00:42:38;92883.66;;;1.82;100.00
39739;BME280;25422;48.286;8.484;2024-01-06T00:45:04;92877.53;;;1.83;100.00
39739;BME280;25422;48.286;8.484;2024-01-06T00:47:30;92879.28;;;1.83;100.00
39739;BME280;25422;48.286;8.484;2024-01-06T00:49:56;92881.88;;;1.83;100.00
39739;BME280;25422;48.286;8.484;2024-01-06T00:52:21;92882.69;;;1.83;100.00
39739;BME280;25422;48.286;8.484;2024-01-06T00:54:47;92882.69;;;1.83;100.00
39739;BME280;25422;48.286;8.484;2024-01-06T00:57:12;92884.44;;;1.83;100.00
39739;BME280;25422;48.286;8.484;2024-01-06T00:59:37;92883.50;;;1.84;100.00
39739;BME280;25422;48.286;8.484;2024-01-06T01:02:03;92887.69;;;1.85;100.00
39739;BME280;25422;48.286;8.484;2024-01-06T01:04:28;92894.34;;;1.88;100.00
39739;BME280;25422;48.286;8.484;2024-01-06T01:06:54;92891.59;;;1.89;100.00
39739;BME280;25422;48.286;8.484;2024-01-06T01:09:19;92896.75;;;1.89;100.00
39739;BME280;25422;48.286;8.484;2024-01-06T01:11:45;92904.88;;;1.94;100.00
39739;BME280;25422;48.286;8.484;2024-01-06T01:14:10;92902.94;;;1.96;100.00
39739;BME280;25422;48.286;8.484;2024-01-06T01:16:36;92906.19;;;1.98;100.00
39739;BME280;25422;48.286;8.484;2024-01-06T01:19:01;92911.34;;;1.98;100.00
39739;BME280;25422;48.286;8.484;2024-01-06T01:21:27;92910.53;;;1.98;100.00
39739;BME280;25422;48.286;8.484;2024-01-06T01:23:53;92906.47;;;1.95;100.00
39739;BME280;25422;48.286;8.484;2024-01-06T01:26:18;92906.63;;;1.94;100.00
39739;BME280;25422;48.286;8.484;2024-01-06T01:28:44;92911.94;;;1.92;100.00
39739;BME280;25422;48.286;8.484;2024-01-06T01:31:10;92911.94;;;1.92;100.00
39739;BME280;25422;48.286;8.484;2024-01-06T01:33:35;92917.75;;;1.94;100.00
39739;BME280;25422;48.286;8.484;2024-01-06T01:36:00;92938.41;;;1.94;100.00
39739;BME280;25422;48.286;8.484;2024-01-06T01:38:26;92935.50;;;1.97;100.00
39739;BME280;25422;48.286;8.484;2024-01-06T01:40:51;92942.72;;;1.94;100.00
39739;BME280;25422;48.286;8.484;2024-01-06T01:43:18;92940.16;;;1.94;100.00
39739;BME280;25422;48.286;8.484;2024-01-06T01:45:43;92943.34;;;1.88;100.00
39739;BME280;25422;48.286;8.484;2024-01-06T01:48:09;92941.03;;;1.84;100.00
39739;BME280;25422;48.286;8.484;2024-01-06T01:50:34;92945.53;;;1.82;100.00
39739;BME280;25422;48.286;8.484;2024-01-06T01:53:00;92945.69;;;1.81;100.00
39739;BME280;25422;48.286;8.484;2024-01-06T01:55:26;92952.09;;;1.77;100.00
39739;BME280;25422;48.286;8.484;2024-01-06T01:57:52;92948.84;;;1.75;100.00
39739;BME280;25422;48.286;8.484;2024-01-06T02:00:18;92951.41;;;1.75;100.00
39739;BME280;25422;48.286;8.484;2024-01-06T02:02:43;92949.53;;;1.77;100.00
39739;BME280;25422;48.286;8.484;2024-01-06T02:05:09;92958.19;;;1.76;100.00
39739;BME280;25422;48.286;8.484;2024-01-06T02:07:34;92953.63;;;1.69;100.00
39739;BME280;25422;48.286;8.484;2024-01-06T02:10:00;92956.06;;;1.71;100.00
39739;BME280;25422;48.286;8.484;2024-01-06T02:12:25;92951.56;;;1.73;100.00
39739;BME280;25422;48.286;8.484;2024-01-06T02:14:51;92959.59;;;1.70;100.00
39739;BME280;25422;48.286;8.484;2024-01-06T02:17:16;92961.34;;;1.69;100.00
39739;BME280;25422;48.286;8.484;2024-01-06T02:19:41;92953.78;;;1.68;100.00
39739;BME280;25422;48.286;8.484;2024-01-06T02:22:07;92957.97;;;1.69;100.00
39739;BME280;25422;48.286;8.484;2024-01-06T02:24:32;92963.94;;;1.69;100.00
39739;BME280;25422;48.286;8.484;2024-01-06T02:26:58;92961.94;;;1.63;100.00
39739;BME280;25422;48.286;8.484;2024-01-06T02:29:23;92965.84;;;1.67;100.00
39739;BME280;25422;48.286;8.484;2024-01-06T02:31:48;92966.16;;;1.64;100.00
39739;BME280;25422;48.286;8.484;2024-01-06T02:34:14;92959.38;;;1.63;100.00
39739;BME280;25422;48.286;8.484;2024-01-06T02:36:39;92962.41;;;1.59;100.00
39739;BME280;25422;48.286;8.484;2024-01-06T02:39:05;92967.25;;;1.62;100.00
39739;BME280;25422;48.286;8.484;2024-01-06T02:41:30;92970.63;;;1.62;100.00
39739;BME280;25422;48.286;8.484;2024-01-06T02:43:55;92971.22;;;1.56;100.00
39739;BME280;25422;48.286;8.484;2024-01-06T02:46:23;92967.97;;;1.54;100.00
39739;BME280;25422;48.286;8.484;2024-01-06T02:48:49;92968.66;;;1.56;100.00
39739;BME280;25422;48.286;8.484;2024-01-06T02:51:14;92967.03;;;1.55;100.00
39739;BME280;25422;48.286;8.484;2024-01-06T02:53:40;92963.75;;;1.53;100.00
39739;BME280;25422;48.286;8.484;2024-01-06T02:56:12;92970.56;;;1.54;100.00
39739;BME280;25422;48.286;8.484;2024-01-06T02:58:38;92974.06;;;1.53;100.00
39739;BME280;25422;48.286;8.484;2024-01-06T03:01:03;92973.44;;;1.51;100.00
39739;BME280;25422;48.286;8.484;2024-01-06T03:03:29;92973.44;;;1.51;100.00
39739;BME280;25422;48.286;8.484;2024-01-06T03:05:55;92975.16;;;1.50;100.00
39739;BME280;25422;48.286;8.484;2024-01-06T03:08:20;92972.75;;;1.49;100.00
39739;BME280;25422;48.286;8.484;2024-01-06T03:10:46;92973.03;;;1.46;100.00
39739;BME280;25422;48.286;8.484;2024-01-06T03:13:11;92969.66;;;1.45;100.00
39739;BME280;25422;48.286;8.484;2024-01-06T03:15:36;92969.78;;;1.44;100.00
39739;BME280;25422;48.286;8.484;2024-01-06T03:18:02;92976.56;;;1.45;100.00
39739;BME280;25422;48.286;8.484;2024-01-06T03:20:27;92972.25;;;1.45;100.00
39739;BME280;25422;48.286;8.484;2024-01-06T03:22:53;92979.53;;;1.50;100.00
39739;BME280;25422;48.286;8.484;2024-01-06T03:25:18;92974.53;;;1.48;100.00
39739;BME280;25422;48.286;8.484;2024-01-06T03:27:43;92979.00;;;1.46;100.00
39739;BME280;25422;48.286;8.484;2024-01-06T03:30:09;92968.19;;;1.43;100.00
39739;BME280;25422;48.286;8.484;2024-01-06T03:32:35;92966.56;;;1.42;100.00
39739;BME280;25422;48.286;8.484;2024-01-06T03:35:00;92968.19;;;1.43;100.00
39739;BME280;25422;48.286;8.484;2024-01-06T03:37:26;92973.59;;;1.40;100.00
39739;BME280;25422;48.286;8.484;2024-01-06T03:39:51;92972.00;;;1.39;100.00
39739;BME280;25422;48.286;8.484;2024-01-06T03:42:16;92964.28;;;1.39;100.00
39739;BME280;25422;48.286;8.484;2024-01-06T03:44:42;92969.44;;;1.39;100.00
39739;BME280;25422;48.286;8.484;2024-01-06T03:47:07;92972.28;;;1.35;100.00
39739;BME280;25422;48.286;8.484;2024-01-06T03:49:33;92967.41;;;1.32;100.00
39739;BME280;25422;48.286;8.484;2024-01-06T03:51:58;92963.34;;;1.30;100.00
39739;BME280;25422;48.286;8.484;2024-01-06T03:54:23;92960.13;;;1.28;100.00
39739;BME280;25422;48.286;8.484;2024-01-06T03:56:49;92957.00;;;1.24;100.00
39739;BME280;25422;48.286;8.484;2024-01-06T03:59:15;92957.97;;;1.23;100.00
39739;BME280;25422;48.286;8.484;2024-01-06T04:01:40;92957.00;;;1.24;100.00
39739;BME280;25422;48.286;8.484;2024-01-06T04:04:06;92958.25;;;1.20;100.00
39739;BME280;25422;48.286;8.484;2024-01-06T04:06:33;92958.25;;;1.20;100.00
39739;BME280;25422;48.286;8.484;2024-01-06T04:08:58;92963.69;;;1.17;100.00
39739;BME280;25422;48.286;8.484;2024-01-06T04:11:24;92966.28;;;1.17;100.00
39739;BME280;25422;48.286;8.484;2024-01-06T04:13:49;92969.78;;;1.16;100.00
39739;BME280;25422;48.286;8.484;2024-01-06T04:16:15;92963.97;;;1.14;100.00
39739;BME280;25422;48.286;8.484;2024-01-06T04:18:40;92965.59;;;1.15;100.00
39739;BME280;25422;48.286;8.484;2024-01-06T04:21:06;92963.16;;;1.13;100.00
39739;BME280;25422;48.286;8.484;2024-01-06T04:23:31;92965.75;;;1.13;100.00
39739;BME280;25422;48.286;8.484;2024-01-06T04:25:57;92967.50;;;1.13;100.00
39739;BME280;25422;48.286;8.484;2024-01-06T04:28:22;92973.47;;;1.13;100.00
39739;BME280;25422;48.286;8.484;2024-01-06T04:30:48;92978.63;;;1.13;100.00
39739;BME280;25422;48.286;8.484;2024-01-06T04:33:13;92977.81;;;1.13;100.00
39739;BME280;25422;48.286;8.484;2024-01-06T04:35:38;92978.75;;;1.12;100.00
39739;BME280;25422;48.286;8.484;2024-01-06T04:38:04;92972.66;;;1.13;100.00
39739;BME280;25422;48.286;8.484;2024-01-06T04:40:30;92973.63;;;1.12;100.00
39739;BME280;25422;48.286;8.484;2024-01-06T04:42:55;92980.66;;;1.10;100.00
39739;BME280;25422;48.286;8.484;2024-01-06T04:45:20;92969.84;;;1.06;100.00
39739;BME280;25422;48.286;8.484;2024-01-06T04:47:48;92975.13;;;1.05;100.00
39739;BME280;25422;48.286;8.484;2024-01-06T04:50:14;92979.47;;;1.04;100.00
39739;BME280;25422;48.286;8.484;2024-01-06T04:52:39;92980.16;;;1.06;100.00
39739;BME280;25422;48.286;8.484;2024-01-06T04:55:05;92983.66;;;1.05;100.00
39739;BME280;25422;48.286;8.484;2024-01-06T04:57:30;92975.13;;;1.05;100.00
39739;BME280;25422;48.286;8.484;2024-01-06T04:59:56;92967.41;;;1.05;100.00
39739;BME280;25422;48.286;8.484;2024-01-06T05:02:21;92967.69;;;1.01;100.00
39739;BME280;25422;48.286;8.484;2024-01-06T05:04:46;92959.59;;;0.96;100.00
39739;BME280;25422;48.286;8.484;2024-01-06T05:07:12;92974.06;;;0.97;100.00
39739;BME280;25422;48.286;8.484;2024-01-06T05:09:37;92976.38;;;1.00;100.00
39739;BME280;25422;48.286;8.484;2024-01-06T05:12:03;92986.53;;;1.02;100.00
39739;BME280;25422;48.286;8.484;2024-01-06T05:14:29;92991.69;;;1.02;100.00
39739;BME280;25422;48.286;8.484;2024-01-06T05:16:54;92983.22;;;1.10;100.00
39739;BME280;25422;48.286;8.484;2024-01-06T05:19:19;92993.41;;;1.11;100.00
39739;BME280;25422;48.286;8.484;2024-01-06T05:21:49;92989.16;;;1.20;100.00
39739;BME280;25422;48.286;8.484;2024-01-06T05:24:14;92998.13;;;1.16;100.00
39739;BME280;25422;48.286;8.484;2024-01-06T05:26:40;92999.47;;;1.20;100.00
39739;BME280;25422;48.286;8.484;2024-01-06T05:29:05;93000.03;;;1.14;100.00
39739;BME280;25422;48.286;8.484;2024-01-06T05:31:31;93000.03;;;1.14;100.00
39739;BME280;25422;48.286;8.484;2024-01-06T05:33:56;93009.53;;;1.13;100.00
39739;BME280;25422;48.286;8.484;2024-01-06T05:36:22;93007.91;;;1.12;100.00
39739;BME280;25422;48.286;8.484;2024-01-06T05:38:47;93011.97;;;1.15;100.00
39739;BME280;25422;48.286;8.484;2024-01-06T05:41:13;93015.88;;;1.19;100.00
39739;BME280;25422;48.286;8.484;2024-01-06T05:43:38;93020.63;;;1.14;100.00
39739;BME280;25422;48.286;8.484;2024-01-06T05:46:04;93013.03;;;1.22;100.00
39739;BME280;25422;48.286;8.484;2024-01-06T05:48:29;93014.25;;;1.18;100.00
39739;BME280;25422;48.286;8.484;2024-01-06T05:50:55;93023.34;;;1.22;100.00
39739;BME280;25422;48.286;8.484;2024-01-06T05:53:20;93029.94;;;1.25;100.00
39739;BME280;25422;48.286;8.484;2024-01-06T05:55:46;93036.63;;;1.17;100.00
39739;BME280;25422;48.286;8.484;2024-01-06T05:58:11;93036.34;;;1.21;100.00
39739;BME280;25422;48.286;8.484;2024-01-06T06:00:37;93041.50;;;1.21;100.00
39739;BME280;25422;48.286;8.484;2024-01-06T06:03:02;93038.25;;;1.18;100.00
39739;BME280;25422;48.286;8.484;2024-01-06T06:05:28;93041.94;;;1.16;100.00
39739;BME280;25422;48.286;8.484;2024-01-06T06:07:53;93049.81;;;1.14;100.00
39739;BME280;25422;48.286;8.484;2024-01-06T06:10:19;93047.22;;;1.14;100.00
39739;BME280;25422;48.286;8.484;2024-01-06T06:12:45;93048.84;;;1.15;100.00
39739;BME280;25422;48.286;8.484;2024-01-06T06:15:11;93045.03;;;1.20;100.00
39739;BME280;25422;48.286;8.484;2024-01-06T06:17:36;93053.97;;;1.25;100.00
39739;BME280;25422;48.286;8.484;2024-01-06T06:20:02;93049.13;;;1.22;100.00
39739;BME280;25422;48.286;8.484;2024-01-06T06:22:28;93057.94;;;1.20;100.00
39739;BME280;25422;48.286;8.484;2024-01-06T06:24:57;93055.34;;;1.20;100.00
39739;BME280;25422;48.286;8.484;2024-01-06T06:27:23;93061.31;;;1.20;100.00
39739;BME280;25422;48.286;8.484;2024-01-06T06:29:49;93067.25;;;1.21;100.00
39739;BME280;25422;48.286;8.484;2024-01-06T06:32:15;93075.13;;;1.19;100.00
39739;BME280;25422;48.286;8.484;2024-01-06T06:34:40;93071.06;;;1.26;100.00
39739;BME280;25422;48.286;8.484;2024-01-06T06:37:06;93070.38;;;1.24;100.00
39739;BME280;25422;48.286;8.484;2024-01-06T06:39:32;93068.88;;;1.22;100.00
39739;BME280;25422;48.286;8.484;2024-01-06T06:41:58;93080.84;;;1.23;100.00
39739;BME280;25422;48.286;8.484;2024-01-06T06:44:23;93071.63;;;1.20;100.00
39739;BME280;25422;48.286;8.484;2024-01-06T06:46:49;93079.88;;;1.24;100.00
39739;BME280;25422;48.286;8.484;2024-01-06T06:49:14;93077.44;;;1.22;100.00
39739;BME280;25422;48.286;8.484;2024-01-06T06:51:40;93089.50;;;1.22;100.00
39739;BME280;25422;48.286;8.484;2024-01-06T06:54:12;93086.38;;;1.18;100.00
39739;BME280;25422;48.286;8.484;2024-01-06T06:56:37;93087.22;;;1.18;100.00
39739;BME280;25422;48.286;8.484;2024-01-06T06:59:03;93090.59;;;1.19;100.00
39739;BME280;25422;48.286;8.484;2024-01-06T07:01:28;93093.56;;;1.24;100.00
39739;BME280;25422;48.286;8.484;2024-01-06T07:03:54;93097.38;;;1.20;100.00
39739;BME280;25422;48.286;8.484;2024-01-06T07:06:19;93094.41;;;1.15;100.00
39739;BME280;25422;48.286;8.484;2024-01-06T07:08:45;93098.22;;;1.11;100.00
39739;BME280;25422;48.286;8.484;2024-01-06T07:11:10;93095.91;;;1.08;100.00
39739;BME280;25422;48.286;8.484;2024-01-06T07:13:37;93095.78;;;1.09;100.00
39739;BME280;25422;48.286;8.484;2024-01-06T07:16:02;93098.50;;;1.08;100.00
39739;BME280;25422;48.286;8.484;2024-01-06T07:18:28;93099.72;;;1.04;100.00
39739;BME280;25422;48.286;8.484;2024-01-06T07:20:53;93102.28;;;1.04;100.00
39739;BME280;25422;48.286;8.484;2024-01-06T07:23:19;93107.44;;;1.04;100.00
39739;BME280;25422;48.286;8.484;2024-01-06T07:25:44;93105.00;;;1.02;100.00
39739;BME280;25422;48.286;8.484;2024-01-06T07:28:10;93105.00;;;1.02;100.00
39739;BME280;25422;48.286;8.484;2024-01-06T07:30:35;93115.47;;;1.00;100.00
39739;BME280;25422;48.286;8.484;2024-01-06T07:33:01;93105.28;;;0.99;100.00
39739;BME280;25422;48.286;8.484;2024-01-06T07:35:27;93113.00;;;0.99;100.00
39739;BME280;25422;48.286;8.484;2024-01-06T07:37:53;93113.97;;;0.98;100.00
39739;BME280;25422;48.286;8.484;2024-01-06T07:40:19;93120.88;;;0.97;100.00
39739;BME280;25422;48.286;8.484;2024-01-06T07:42:44;93115.72;;;0.97;100.00
39739;BME280;25422;48.286;8.484;2024-01-06T07:45:10;93124.41;;;0.96;100.00
39739;BME280;25422;48.286;8.484;2024-01-06T07:47:35;93121.56;;;0.99;100.00
39739;BME280;25422;48.286;8.484;2024-01-06T07:50:01;93130.09;;;1.00;100.00
39739;BME280;25422;48.286;8.484;2024-01-06T07:52:27;93125.34;;;0.95;100.00
39739;BME280;25422;48.286;8.484;2024-01-06T07:54:52;93126.00;;;0.97;100.00
39739;BME280;25422;48.286;8.484;2024-01-06T07:57:17;93131.31;;;0.96;100.00
39739;BME280;25422;48.286;8.484;2024-01-06T07:59:43;93130.50;;;0.95;100.00
39739;BME280;25422;48.286;8.484;2024-01-06T08:02:08;93125.34;;;0.95;100.00
39739;BME280;25422;48.286;8.484;2024-01-06T08:04:34;93134.56;;;0.98;100.00
39739;BME280;25422;48.286;8.484;2024-01-06T08:06:59;93131.31;;;0.96;100.00
39739;BME280;25422;48.286;8.484;2024-01-06T08:09:25;93136.19;;;0.99;100.00
39739;BME280;25422;48.286;8.484;2024-01-06T08:11:50;93135.78;;;1.04;100.00
39739;BME280;25422;48.286;8.484;2024-01-06T08:14:16;93142.41;;;1.06;100.00
39739;BME280;25422;48.286;8.484;2024-01-06T08:16:43;93136.19;;;1.09;100.00
39739;BME280;25422;48.286;8.484;2024-01-06T08:19:09;93135.91;;;1.12;100.00
39739;BME280;25422;48.286;8.484;2024-01-06T08:21:34;93127.22;;;1.03;100.00
39739;BME280;25422;48.286;8.484;2024-01-06T08:24:00;93137.00;;;1.09;100.00
39739;BME280;25422;48.286;8.484;2024-01-06T08:26:26;93135.34;;;1.08;100.00
39739;BME280;25422;48.286;8.484;2024-01-06T08:28:51;93131.31;;;1.15;100.00
39739;BME280;25422;48.286;8.484;2024-01-06T08:31:18;93138.34;;;1.13;100.00
39739;BME280;25422;48.286;8.484;2024-01-06T08:33:43;93138.47;;;1.22;100.00
39739;BME280;25422;48.286;8.484;2024-01-06T08:36:09;93139.16;;;1.24;100.00
39739;BME280;25422;48.286;8.484;2024-01-06T08:38:35;93147.28;;;1.19;100.00
39739;BME280;25422;48.286;8.484;2024-01-06T08:41:01;93148.22;;;1.28;100.00
39739;BME280;25422;48.286;8.484;2024-01-06T08:43:27;93149.28;;;1.35;100.00
39739;BME280;25422;48.286;8.484;2024-01-06T08:45:52;93142.09;;;1.39;100.00
39739;BME280;25422;48.286;8.484;2024-01-06T08:48:18;93147.25;;;1.39;100.00
39739;BME280;25422;48.286;8.484;2024-01-06T08:50:44;93149.38;;;1.53;100.00
39739;BME280;25422;48.286;8.484;2024-01-06T08:53:12;93151.00;;;1.54;100.00
39739;BME280;25422;48.286;8.484;2024-01-06T08:55:38;93149.78;;;1.48;100.00
39739;BME280;25422;48.286;8.484;2024-01-06T08:58:04;93156.66;;;1.67;100.00
39739;BME280;25422;48.286;8.484;2024-01-06T09:00:29;93154.47;;;1.73;100.00
39739;BME280;25422;48.286;8.484;2024-01-06T09:02:55;93148.75;;;1.79;100.00
39739;BME280;25422;48.286;8.484;2024-01-06T09:05:20;93154.94;;;1.96;100.00
39739;BME280;25422;48.286;8.484;2024-01-06T09:07:45;93154.59;;;2.09;100.00
39739;BME280;25422;48.286;8.484;2024-01-06T09:10:18;93163.41;;;2.16;100.00
39739;BME280;25422;48.286;8.484;2024-01-06T09:12:44;93165.16;;;2.15;100.00
39739;BME280;25422;48.286;8.484;2024-01-06T09:15:10;93166.44;;;2.01;100.00
39739;BME280;25422;48.286;8.484;2024-01-06T09:17:35;93168.91;;;1.93;100.00
39739;BME280;25422;48.286;8.484;2024-01-06T09:20:01;93162.03;;;1.84;100.00
39739;BME280;25422;48.286;8.484;2024-01-06T09:22:27;93169.66;;;1.76;100.00
39739;BME280;25422;48.286;8.484;2024-01-06T09:24:52;93170.16;;;1.89;100.00
39739;BME280;25422;48.286;8.484;2024-01-06T09:27:19;93178.84;;;1.88;100.00
39739;BME280;25422;48.286;8.484;2024-01-06T09:29:45;93180.69;;;2.06;100.00
39739;BME280;25422;48.286;8.484;2024-01-06T09:32:10;93180.88;;;1.94;100.00
39739;BME280;25422;48.286;8.484;2024-01-06T09:34:36;93179.97;;;2.13;100.00
39739;BME280;25422;48.286;8.484;2024-01-06T09:37:02;93184.59;;;2.10;100.00
39739;BME280;25422;48.286;8.484;2024-01-06T09:39:27;93179.81;;;2.15;100.00
39739;BME280;25422;48.286;8.484;2024-01-06T09:41:53;93184.28;;;2.23;100.00
39739;BME280;25422;48.286;8.484;2024-01-06T09:44:18;93182.41;;;2.15;100.00
39739;BME280;25422;48.286;8.484;2024-01-06T09:46:44;93180.38;;;2.09;100.00
39739;BME280;25422;48.286;8.484;2024-01-06T09:49:10;93179.69;;;1.89;100.00
39739;BME280;25422;48.286;8.484;2024-01-06T09:51:36;93185.44;;;2.00;100.00
39739;BME280;25422;48.286;8.484;2024-01-06T09:54:08;93191.19;;;2.22;100.00
39739;BME280;25422;48.286;8.484;2024-01-06T09:56:34;93179.81;;;2.15;100.00
39739;BME280;25422;48.286;8.484;2024-01-06T09:59:01;93184.88;;;2.34;100.00
39739;BME280;25422;48.286;8.484;2024-01-06T10:01:26;93193.53;;;2.43;100.00
39739;BME280;25422;48.286;8.484;2024-01-06T10:03:52;93191.03;;;2.24;100.00
39739;BME280;25422;48.286;8.484;2024-01-06T10:06:18;93187.41;;;2.16;100.00
39739;BME280;25422;48.286;8.484;2024-01-06T10:08:44;93189.94;;;2.26;100.00
39739;BME280;25422;48.286;8.484;2024-01-06T10:11:10;93182.78;;;2.20;100.00
39739;BME280;25422;48.286;8.484;2024-01-06T10:13:36;93184.19;;;2.14;100.00
39739;BME280;25422;48.286;8.484;2024-01-06T10:16:04;93179.91;;;2.23;100.00
39739;BME280;25422;48.286;8.484;2024-01-06T10:18:30;93194.72;;;2.21;100.00
39739;BME280;25422;48.286;8.484;2024-01-06T10:20:56;93183.66;;;2.11;100.00
39739;BME280;25422;48.286;8.484;2024-01-06T10:23:23;93191.69;;;2.08;100.00
39739;BME280;25422;48.286;8.484;2024-01-06T10:25:54;93195.50;;;2.31;100.00
39739;BME280;25422;48.286;8.484;2024-01-06T10:28:23;93188.47;;;2.51;100.00
39739;BME280;25422;48.286;8.484;2024-01-06T10:30:52;93187.44;;;2.44;100.00
39739;BME280;25422;48.286;8.484;2024-01-06T10:33:22;93184.47;;;2.39;100.00
39739;BME280;25422;48.286;8.484;2024-01-06T10:35:48;93190.84;;;2.63;100.00
39739;BME280;25422;48.286;8.484;2024-01-06T10:38:14;93184.16;;;2.70;100.00
39739;BME280;25422;48.286;8.484;2024-01-06T10:40:59;93187.16;;;2.65;100.00
39739;BME280;25422;48.286;8.484;2024-01-06T10:43:25;93185.16;;;2.59;100.00
39739;BME280;25422;48.286;8.484;2024-01-06T10:45:53;93188.84;;;2.57;100.00
39739;BME280;25422;48.286;8.484;2024-01-06T10:48:20;93187.66;;;2.51;100.00
39739;BME280;25422;48.286;8.484;2024-01-06T10:50:47;93182.28;;;2.34;100.00
39739;BME280;25422;48.286;8.484;2024-01-06T10:53:14;93185.03;;;2.61;100.00
39739;BME280;25422;48.286;8.484;2024-01-06T10:55:40;93187.38;;;2.54;100.00
39739;BME280;25422;48.286;8.484;2024-01-06T10:58:07;93184.41;;;2.49;100.00
39739;BME280;25422;48.286;8.484;2024-01-06T11:00:36;93183.31;;;2.24;100.00
39739;BME280;25422;48.286;8.484;2024-01-06T11:03:02;93180.22;;;2.20;100.00
39739;BME280;25422;48.286;8.484;2024-01-06T11:05:29;93187.19;;;2.10;100.00
39739;BME280;25422;48.286;8.484;2024-01-06T11:07:56;93189.00;;;1.99;100.00
39739;BME280;25422;48.286;8.484;2024-01-06T11:10:26;93186.78;;;2.05;100.00
39739;BME280;25422;48.286;8.484;2024-01-06T11:15:41;93188.28;;;2.07;100.00
39739;BME280;25422;48.286;8.484;2024-01-06T11:18:06;93189.91;;;2.08;100.00
39739;BME280;25422;48.286;8.484;2024-01-06T11:20:32;93186.38;;;2.09;100.00
39739;BME280;25422;48.286;8.484;2024-01-06T11:23:18;93186.13;;;2.02;100.00
39739;BME280;25422;48.286;8.484;2024-01-06T11:25:46;93184.78;;;1.98;100.00
39739;BME280;25422;48.286;8.484;2024-01-06T11:28:11;93186.81;;;1.95;100.00
39739;BME280;25422;48.286;8.484;2024-01-06T11:30:38;93170.81;;;1.91;100.00
39739;BME280;25422;48.286;8.484;2024-01-06T11:33:04;93174.25;;;1.82;100.00
39739;BME280;25422;48.286;8.484;2024-01-06T11:35:30;93178.28;;;1.94;100.00
39739;BME280;25422;48.286;8.484;2024-01-06T11:38:00;93171.78;;;1.90;100.00
39739;BME280;25422;48.286;8.484;2024-01-06T11:40:33;93176.38;;;1.96;100.00
39739;BME280;25422;48.286;8.484;2024-01-06T11:43:07;93176.66;;;1.93;100.00
39739;BME280;25422;48.286;8.484;2024-01-06T11:45:38;93168.56;;;1.78;100.00
39739;BME280;25422;48.286;8.484;2024-01-06T11:48:07;93165.59;;;1.73;100.00
39739;BME280;25422;48.286;8.484;2024-01-06T11:50:35;93168.72;;;1.77;100.00
39739;BME280;25422;48.286;8.484;2024-01-06T11:53:02;93165.84;;;1.80;100.00
39739;BME280;25422;48.286;8.484;2024-01-06T11:55:28;93162.09;;;1.64;100.00
39739;BME280;25422;48.286;8.484;2024-01-06T11:57:55;93164.16;;;1.61;100.00
39739;BME280;25422;48.286;8.484;2024-01-06T12:00:21;93169.19;;;1.52;100.00
39739;BME280;25422;48.286;8.484;2024-01-06T12:02:47;93159.16;;;1.49;100.00
39739;BME280;25422;48.286;8.484;2024-01-06T12:05:14;93172.31;;;1.56;100.00
39739;BME280;25422;48.286;8.484;2024-01-06T12:07:41;93164.50;;;1.76;100.00
39739;BME280;25422;48.286;8.484;2024-01-06T12:10:08;93165.88;;;1.70;100.00
39739;BME280;25422;48.286;8.484;2024-01-06T12:12:33;93166.56;;;1.62;100.00
39739;BME280;25422;48.286;8.484;2024-01-06T12:14:59;93162.75;;;1.66;100.00
39739;BME280;25422;48.286;8.484;2024-01-06T12:17:52;93161.03;;;1.57;100.00
39739;BME280;25422;48.286;8.484;2024-01-06T12:20:27;93166.88;;;1.59;100.00
39739;BME280;25422;48.286;8.484;2024-01-06T12:22:54;93160.44;;;1.73;100.00
39739;BME280;25422;48.286;8.484;2024-01-06T12:25:21;93163.69;;;1.75;100.00
39739;BME280;25422;48.286;8.484;2024-01-06T12:27:48;93163.75;;;1.56;100.00
39739;BME280;25422;48.286;8.484;2024-01-06T12:30:18;93159.78;;;1.71;100.00
39739;BME280;25422;48.286;8.484;2024-01-06T12:32:45;93164.69;;;1.64;100.00
39739;BME280;25422;48.286;8.484;2024-01-06T12:35:11;93162.03;;;1.84;100.00
39739;BME280;25422;48.286;8.484;2024-01-06T12:37:42;93161.63;;;1.89;100.00
39739;BME280;25422;48.286;8.484;2024-01-06T12:40:09;93159.94;;;1.60;100.00
39739;BME280;25422;48.286;8.484;2024-01-06T12:42:34;93161.81;;;1.67;100.00
39739;BME280;25422;48.286;8.484;2024-01-06T12:45:00;93149.53;;;1.89;100.00
39739;BME280;25422;48.286;8.484;2024-01-06T12:47:25;93155.03;;;1.66;100.00
39739;BME280;25422;48.286;8.484;2024-01-06T12:49:51;93156.72;;;1.48;100.00
39739;BME280;25422;48.286;8.484;2024-01-06T12:52:16;93157.84;;;1.26;100.00
39739;BME280;25422;48.286;8.484;2024-01-06T12:54:41;93152.16;;;1.12;100.00
39739;BME280;25422;48.286;8.484;2024-01-06T12:57:08;93160.31;;;1.08;100.00